Hlavní strana
METAR-TAF:

METAR-TAF

Letiště :

Ljungbyhed, Švédsko

zeměpisná šířka: 56-04N, zeměpisná délka: 013-12E, výška: 43 m

Aktuální stav počasí

Zpráva byla vytvořena před 24 minutami, v 16:50 UTC
Severovýchodní vítr 8 kt
Teplota 5°C
Vlhkost vzduchu 81%
Tlak 1035 hPa
Viditelnost 10 km a více

METAR: ESTL 181650Z AUTO 04008KT 9999 FEW025/// SCT030/// BKN035/// 05/02 Q1035

Čas: 18:14 (17:14 UTC)


TAF: chybějící

Stav a předpovědi počasí z více než 4 000 letišť (zprávy METAR a TAF).

Červené a žluté tečky na mapě představují dostupné meteorologické stanice.

Když kurzor umístíte na tečku, zobrazí se název stanice.

Pak kliknutím zobrazíte stav a předpověď počasí.

Chcete-li změnit mapu, kliknutím na zelené tlačítko se znaménkem +mapu přiblížíte, kliknutím na zelené tlačítko se znaménkem – mapu oddálíte a kliknutím na zelené šipky přejdete na sousední mapy.


METAR-TAF: